NCAR-RAP Real-Time Weather Data

Output produced by METARs form (14 October 2019  23:44 UTC)
found at http://weather.rap.ucar.edu/surface/
 
KGRR 142253Z 25008KT 10SM FEW036 BKN250 08/00 A3006 RMK AO2 SLP185 T00780000 $
KGRR 142153Z 27010KT 10SM SCT042 BKN250 09/00 A3006 RMK AO2 SLP183 T00940000 $
KGRR 142053Z 27011KT 10SM FEW036 BKN045 09/01 A3005 RMK AO2 SLP182 T00890006 51006 $